createdAt,value
2022-08-31T00:00:10.772Z,102109.00
2022-08-31T00:02:57.209Z,102107.00
2022-08-31T00:05:24.149Z,102118.00
2022-08-31T00:07:51.812Z,102120.00
2022-08-31T00:10:31.626Z,102119.00
2022-08-31T00:13:00.327Z,102110.00
2022-08-31T00:15:30.056Z,102100.00
2022-08-31T00:17:57.972Z,102103.00
2022-08-31T00:20:33.493Z,102102.00
2022-08-31T00:23:12.580Z,102113.00
2022-08-31T00:25:41.555Z,102109.00
2022-08-31T00:28:09.072Z,102114.00
2022-08-31T00:30:36.813Z,102117.00
2022-08-31T00:33:04.721Z,102113.00
2022-08-31T00:35:33.493Z,102121.00
2022-08-31T00:38:00.561Z,102118.00
2022-08-31T00:40:28.026Z,102118.00
2022-08-31T00:42:55.831Z,102112.00
2022-08-31T00:45:24.419Z,102112.00
2022-08-31T00:47:52.140Z,102113.00
2022-08-31T00:50:20.859Z,102114.00
2022-08-31T00:52:58.358Z,102115.00
2022-08-31T00:55:31.567Z,102118.00
2022-08-31T00:58:00.740Z,102106.00
2022-08-31T01:00:28.601Z,102118.00
2022-08-31T01:02:57.313Z,102096.00
2022-08-31T01:05:24.619Z,102120.00
2022-08-31T01:07:52.319Z,102122.00
2022-08-31T01:10:21.400Z,102115.00
2022-08-31T01:12:51.096Z,102108.00
2022-08-31T01:15:18.932Z,102107.00
2022-08-31T01:17:48.220Z,102110.00
2022-08-31T01:20:48.613Z,102112.00
2022-08-31T01:23:27.519Z,102113.00
2022-08-31T01:25:56.399Z,102106.00
2022-08-31T01:28:23.303Z,102106.00
2022-08-31T01:30:59.419Z,102113.00
2022-08-31T01:33:26.627Z,102113.00
2022-08-31T01:35:53.672Z,102111.00
2022-08-31T01:38:21.443Z,102109.00
2022-08-31T01:40:57.194Z,102097.00
2022-08-31T01:43:24.993Z,102105.00
2022-08-31T01:45:52.489Z,102109.00
2022-08-31T01:48:19.338Z,102103.00
2022-08-31T01:50:46.253Z,102104.00
2022-08-31T01:53:13.587Z,102109.00
2022-08-31T01:55:41.351Z,102103.00
2022-08-31T01:58:08.866Z,102105.00
2022-08-31T02:00:36.404Z,102111.00
2022-08-31T02:03:05.756Z,102097.00
2022-08-31T02:05:34.078Z,102103.00
2022-08-31T02:08:01.738Z,102100.00
2022-08-31T02:10:28.912Z,102096.00
2022-08-31T02:12:57.071Z,102106.00
2022-08-31T02:15:24.182Z,102112.00
2022-08-31T02:17:52.691Z,102095.00
2022-08-31T02:20:20.328Z,102110.00
2022-08-31T02:22:48.679Z,102103.00
2022-08-31T02:25:16.737Z,102107.00
2022-08-31T02:27:45.196Z,102100.00
2022-08-31T02:30:15.526Z,102108.00
2022-08-31T02:32:42.480Z,102100.00
2022-08-31T02:35:10.143Z,102090.00
2022-08-31T02:37:37.115Z,102099.00
2022-08-31T02:40:09.026Z,102090.00
2022-08-31T02:42:52.779Z,102091.00
2022-08-31T02:45:21.786Z,102098.00
2022-08-31T02:47:49.067Z,102106.00
2022-08-31T02:50:16.351Z,102098.00
2022-08-31T02:52:46.802Z,102096.00
2022-08-31T02:55:13.973Z,102096.00
2022-08-31T02:57:40.889Z,102094.00
2022-08-31T03:00:09.804Z,102090.00
2022-08-31T03:02:36.965Z,102090.00
2022-08-31T03:05:08.247Z,102094.00
2022-08-31T03:07:35.629Z,102098.00
2022-08-31T03:10:03.184Z,102100.00
2022-08-31T03:12:29.982Z,102094.00
2022-08-31T03:14:56.841Z,102098.00
2022-08-31T03:17:23.678Z,102096.00
2022-08-31T03:19:50.673Z,102103.00
2022-08-31T03:22:17.474Z,102103.00
2022-08-31T03:24:46.843Z,102099.00
2022-08-31T03:27:13.946Z,102098.00
2022-08-31T03:29:42.450Z,102102.00
2022-08-31T03:32:09.654Z,102094.00
2022-08-31T03:34:36.446Z,102089.00
2022-08-31T03:37:04.096Z,102099.00
2022-08-31T03:39:31.179Z,102102.00
2022-08-31T03:41:58.146Z,102093.00
2022-08-31T03:44:25.135Z,102087.00
2022-08-31T03:46:54.974Z,102092.00
2022-08-31T03:49:23.442Z,102094.00
2022-08-31T03:51:50.274Z,102095.00
2022-08-31T03:54:19.961Z,102098.00
2022-08-31T03:56:47.127Z,102099.00
2022-08-31T03:59:14.355Z,102102.00
2022-08-31T04:01:43.423Z,102100.00
2022-08-31T04:04:12.777Z,102103.00
2022-08-31T04:06:40.914Z,102109.00
2022-08-31T04:09:08.082Z,102103.00
2022-08-31T04:11:44.709Z,102108.00
2022-08-31T04:14:12.754Z,102110.00
2022-08-31T04:16:43.930Z,102119.00
2022-08-31T04:19:11.691Z,102113.00
2022-08-31T04:21:41.155Z,102126.00
2022-08-31T04:24:13.604Z,102107.00
2022-08-31T04:26:41.035Z,102117.00
2022-08-31T04:29:13.118Z,102114.00
2022-08-31T04:31:41.065Z,102112.00
2022-08-31T04:34:07.921Z,102120.00
2022-08-31T04:36:35.667Z,102115.00
2022-08-31T04:39:03.848Z,102119.00
2022-08-31T04:41:32.672Z,102122.00
2022-08-31T04:44:00.725Z,102127.00
2022-08-31T04:46:28.239Z,102122.00
2022-08-31T04:48:55.960Z,102120.00
2022-08-31T04:51:29.600Z,102122.00
2022-08-31T04:53:57.573Z,102115.00
2022-08-31T04:56:27.757Z,102119.00
2022-08-31T04:59:00.112Z,102112.00
2022-08-31T05:01:33.567Z,102134.00
2022-08-31T05:04:04.629Z,102115.00
2022-08-31T05:06:42.807Z,102121.00
2022-08-31T05:09:13.444Z,102120.00
2022-08-31T05:11:41.385Z,102119.00
2022-08-31T05:14:09.404Z,102134.00
2022-08-31T05:16:38.264Z,102130.00
2022-08-31T05:19:05.244Z,102118.00
2022-08-31T05:21:36.811Z,102122.00
2022-08-31T05:24:13.271Z,102116.00
2022-08-31T05:26:48.309Z,102129.00
2022-08-31T05:29:17.570Z,102129.00
2022-08-31T05:31:48.064Z,102125.00
2022-08-31T05:34:17.837Z,102133.00
2022-08-31T05:36:48.928Z,102128.00
2022-08-31T05:39:16.073Z,102129.00
2022-08-31T05:41:47.195Z,102121.00
2022-08-31T05:51:02.754Z,102134.00
2022-08-31T05:54:39.427Z,102139.00
2022-08-31T05:57:43.494Z,102145.00
2022-08-31T06:00:30.558Z,102135.00
2022-08-31T06:03:07.026Z,102141.00
2022-08-31T06:06:56.405Z,102147.00
2022-08-31T06:09:54.478Z,102143.00
2022-08-31T06:24:38.309Z,102162.00
2022-08-31T06:27:06.110Z,102159.00
2022-08-31T06:29:33.625Z,102159.00
2022-08-31T06:32:00.977Z,102142.00
2022-08-31T06:34:29.307Z,102152.00
2022-08-31T06:36:56.381Z,102150.00
2022-08-31T06:39:24.070Z,102142.00
2022-08-31T06:41:52.704Z,102135.00
2022-08-31T06:44:22.374Z,102140.00
2022-08-31T06:46:51.412Z,102142.00
2022-08-31T06:49:19.519Z,102141.00
2022-08-31T06:51:46.412Z,102139.00
2022-08-31T06:54:29.450Z,102147.00
2022-08-31T06:56:58.896Z,102143.00
2022-08-31T06:59:29.093Z,102145.00
2022-08-31T07:01:58.716Z,102139.00
2022-08-31T07:04:26.569Z,102137.00
2022-08-31T07:06:53.585Z,102144.00
2022-08-31T07:09:20.471Z,102147.00
2022-08-31T07:11:52.259Z,102142.00
2022-08-31T07:14:24.707Z,102146.00
2022-08-31T07:16:54.334Z,102142.00
2022-08-31T07:19:22.070Z,102141.00
2022-08-31T07:21:54.942Z,102145.00
2022-08-31T07:24:25.198Z,102151.00
2022-08-31T07:26:55.016Z,102144.00
2022-08-31T07:29:23.113Z,102156.00
2022-08-31T07:31:50.552Z,102159.00
2022-08-31T07:34:25.757Z,102159.00
2022-08-31T07:37:12.974Z,102179.00
2022-08-31T07:40:03.393Z,102205.00
2022-08-31T07:42:36.773Z,102223.00
2022-08-31T07:45:11.674Z,102222.00
2022-08-31T07:47:45.287Z,102219.00
2022-08-31T07:50:13.917Z,102253.00
2022-08-31T07:52:51.831Z,102272.00
2022-08-31T07:55:19.684Z,102278.00
2022-08-31T07:57:46.853Z,102299.00
2022-08-31T08:00:21.388Z,102314.00
2022-08-31T08:02:52.699Z,102313.00
2022-08-31T08:05:25.130Z,102296.00
2022-08-31T08:07:58.418Z,102292.00
2022-08-31T08:10:30.052Z,102298.00
2022-08-31T08:13:04.218Z,102295.00
2022-08-31T08:15:35.765Z,102333.00
2022-08-31T08:18:06.645Z,102308.00
2022-08-31T08:20:37.249Z,102316.00
2022-08-31T08:23:14.511Z,102369.00
2022-08-31T08:25:46.390Z,102378.00
2022-08-31T08:31:05.608Z,102377.00
2022-08-31T08:33:34.587Z,102376.00
2022-08-31T08:36:03.324Z,102386.00
2022-08-31T08:38:31.141Z,102360.00
2022-08-31T08:41:04.742Z,102377.00
2022-08-31T08:43:37.649Z,102376.00
2022-08-31T08:46:25.229Z,102351.00
2022-08-31T08:48:56.066Z,102384.00
2022-08-31T08:51:25.157Z,102382.00
2022-08-31T08:53:55.720Z,102393.00
2022-08-31T08:56:33.514Z,102383.00
2022-08-31T08:59:05.410Z,102401.00
2022-08-31T09:01:37.486Z,102392.00
2022-08-31T09:04:14.118Z,102409.00
2022-08-31T09:06:54.352Z,102403.00
2022-08-31T09:09:40.758Z,102395.00
2022-08-31T09:12:46.389Z,102395.00
2022-08-31T09:15:41.910Z,102410.00
2022-08-31T09:18:39.854Z,102401.00
2022-08-31T09:21:20.721Z,102385.00
2022-08-31T09:24:21.906Z,102404.00
2022-08-31T09:27:18.212Z,102418.00
2022-08-31T09:29:55.756Z,102384.00
2022-08-31T09:32:31.952Z,102371.00
2022-08-31T09:35:22.004Z,102374.00
2022-08-31T09:38:02.032Z,102368.00
2022-08-31T09:40:39.140Z,102399.00
2022-08-31T09:43:17.888Z,102407.00
2022-08-31T09:46:19.922Z,102388.00
2022-08-31T09:48:51.977Z,102383.00
2022-08-31T09:51:29.848Z,102361.00
2022-08-31T09:54:47.178Z,102386.00
2022-08-31T09:57:14.479Z,102409.00
2022-08-31T09:59:47.116Z,102411.00
2022-08-31T10:02:28.620Z,102402.00
2022-08-31T10:05:04.280Z,102381.00
2022-08-31T10:07:46.077Z,102422.00
2022-08-31T10:10:31.309Z,102415.00
2022-08-31T10:13:22.079Z,102410.00
2022-08-31T10:16:06.780Z,102403.00
2022-08-31T10:18:41.944Z,102378.00
2022-08-31T10:21:21.349Z,102382.00
2022-08-31T10:24:10.901Z,102353.00
2022-08-31T10:26:47.032Z,102364.00
2022-08-31T10:29:38.671Z,102389.00
2022-08-31T10:32:18.344Z,102386.00
2022-08-31T10:35:06.243Z,102392.00
2022-08-31T10:37:49.814Z,102409.00
2022-08-31T10:40:21.584Z,102410.00
2022-08-31T10:42:59.277Z,102410.00
2022-08-31T10:45:31.704Z,102394.00
2022-08-31T10:47:59.413Z,102393.00
2022-08-31T10:50:45.922Z,102378.00
2022-08-31T10:53:40.104Z,102370.00
2022-08-31T10:56:17.126Z,102389.00
2022-08-31T10:59:08.478Z,102383.00
2022-08-31T11:02:09.021Z,102371.00
2022-08-31T11:05:18.848Z,102383.00
2022-08-31T11:08:17.560Z,102377.00
2022-08-31T11:10:47.284Z,102403.00
2022-08-31T11:13:49.461Z,102370.00
2022-08-31T11:16:35.220Z,102375.00
2022-08-31T11:19:09.408Z,102387.00
2022-08-31T11:22:04.337Z,102389.00
2022-08-31T11:24:51.204Z,102393.00
2022-08-31T11:27:44.330Z,102412.00
2022-08-31T11:30:24.555Z,102405.00
2022-08-31T11:32:56.988Z,102396.00
2022-08-31T11:36:07.697Z,102385.00
2022-08-31T11:38:43.199Z,102370.00
2022-08-31T11:41:31.732Z,102360.00
2022-08-31T11:44:11.825Z,102347.00
2022-08-31T11:46:40.047Z,102353.00
2022-08-31T11:49:10.835Z,102339.00
2022-08-31T11:51:46.140Z,102344.00
2022-08-31T11:54:41.944Z,102371.00
2022-08-31T11:57:15.447Z,102377.00
2022-08-31T11:59:46.352Z,102348.00
2022-08-31T12:02:19.421Z,102347.00
2022-08-31T12:04:47.446Z,102346.00
2022-08-31T12:07:28.462Z,102331.00
2022-08-31T12:10:22.035Z,102333.00
2022-08-31T12:12:51.588Z,102334.00
2022-08-31T12:15:21.353Z,102319.00
2022-08-31T12:18:10.546Z,102314.00
2022-08-31T12:21:02.252Z,102309.00
2022-08-31T12:23:56.983Z,102298.00
2022-08-31T12:26:56.302Z,102303.00
2022-08-31T12:29:27.931Z,102297.00
2022-08-31T12:32:27.111Z,102293.00
2022-08-31T12:35:12.453Z,102287.00
2022-08-31T12:37:40.357Z,102291.00
2022-08-31T12:40:19.904Z,102297.00
2022-08-31T12:43:37.807Z,102305.00
2022-08-31T12:46:04.704Z,102311.00
2022-08-31T12:48:46.708Z,102302.00
2022-08-31T12:51:42.138Z,102303.00
2022-08-31T12:54:20.901Z,102319.00
2022-08-31T12:57:07.988Z,102304.00
2022-08-31T13:00:00.444Z,102302.00
2022-08-31T13:02:30.820Z,102316.00
2022-08-31T13:04:57.717Z,102315.00
2022-08-31T13:07:31.434Z,102325.00
2022-08-31T13:10:13.820Z,102332.00
2022-08-31T13:12:55.165Z,102327.00
2022-08-31T13:15:27.541Z,102301.00
2022-08-31T13:17:55.120Z,102304.00
2022-08-31T13:20:32.915Z,102304.00
2022-08-31T13:23:02.741Z,102286.00
2022-08-31T13:25:37.544Z,102301.00
2022-08-31T13:28:14.262Z,102306.00
2022-08-31T13:30:43.575Z,102302.00
2022-08-31T13:33:33.304Z,102312.00
2022-08-31T13:36:33.170Z,102321.00
2022-08-31T13:39:12.368Z,102306.00
2022-08-31T13:41:57.020Z,102312.00
2022-08-31T13:44:32.992Z,102287.00
2022-08-31T13:47:03.834Z,102299.00
2022-08-31T13:49:37.737Z,102288.00
2022-08-31T13:52:09.751Z,102281.00
2022-08-31T13:54:36.728Z,102278.00
2022-08-31T13:57:17.969Z,102271.00
2022-08-31T13:59:48.229Z,102270.00
2022-08-31T14:02:22.704Z,102278.00
2022-08-31T14:04:57.542Z,102272.00
2022-08-31T14:07:33.503Z,102264.00
2022-08-31T14:10:22.234Z,102266.00
2022-08-31T14:13:04.382Z,102279.00
2022-08-31T14:15:41.027Z,102284.00
2022-08-31T14:18:42.563Z,102292.00
2022-08-31T14:21:24.191Z,102288.00
2022-08-31T14:24:03.021Z,102268.00
2022-08-31T14:26:36.869Z,102264.00
2022-08-31T14:29:12.403Z,102248.00
2022-08-31T14:31:52.126Z,102241.00
2022-08-31T14:34:30.475Z,102246.00
2022-08-31T14:37:19.776Z,102250.00
2022-08-31T14:39:53.771Z,102263.00
2022-08-31T14:42:26.560Z,102276.00
2022-08-31T14:45:21.119Z,102265.00
2022-08-31T14:47:52.531Z,102274.00
2022-08-31T14:50:25.355Z,102272.00
2022-08-31T14:52:53.055Z,102263.00
2022-08-31T14:55:21.482Z,102281.00
2022-08-31T14:57:55.509Z,102276.00
2022-08-31T15:00:23.345Z,102269.00
2022-08-31T15:02:53.464Z,102282.00
2022-08-31T15:05:24.486Z,102279.00
2022-08-31T15:07:53.919Z,102264.00
2022-08-31T15:10:24.216Z,102272.00
2022-08-31T15:12:51.697Z,102281.00
2022-08-31T15:15:20.462Z,102284.00
2022-08-31T15:17:50.329Z,102272.00
2022-08-31T15:20:19.725Z,102276.00
2022-08-31T15:22:47.835Z,102287.00
2022-08-31T15:25:15.387Z,102278.00
2022-08-31T15:27:44.196Z,102283.00
2022-08-31T15:30:18.951Z,102285.00
2022-08-31T15:32:48.111Z,102279.00
2022-08-31T15:35:23.510Z,102291.00
2022-08-31T15:37:56.297Z,102290.00
2022-08-31T15:40:23.874Z,102263.00
2022-08-31T15:42:53.930Z,102255.00
2022-08-31T15:45:21.993Z,102255.00
2022-08-31T15:48:07.597Z,102275.00
2022-08-31T15:50:35.915Z,102268.00
2022-08-31T15:53:09.394Z,102266.00
2022-08-31T15:55:40.624Z,102275.00
2022-08-31T15:58:09.347Z,102260.00
2022-08-31T16:00:37.382Z,102268.00
2022-08-31T16:03:06.219Z,102268.00
2022-08-31T16:05:39.034Z,102256.00
2022-08-31T16:08:11.499Z,102271.00
2022-08-31T16:10:43.249Z,102263.00
2022-08-31T16:13:10.425Z,102249.00
2022-08-31T16:15:38.883Z,102241.00
2022-08-31T16:18:06.233Z,102243.00
2022-08-31T16:20:34.589Z,102222.00
2022-08-31T16:23:05.033Z,102234.00
2022-08-31T16:25:47.654Z,102232.00
2022-08-31T16:28:17.357Z,102233.00
2022-08-31T16:30:45.237Z,102220.00
2022-08-31T16:33:12.342Z,102212.00
2022-08-31T16:35:40.330Z,102205.00
2022-08-31T16:38:07.391Z,102198.00
2022-08-31T16:40:35.710Z,102187.00
2022-08-31T16:43:03.223Z,102179.00
2022-08-31T16:45:30.311Z,102183.00
2022-08-31T16:48:22.150Z,102181.00
2022-08-31T16:50:49.118Z,102186.00
2022-08-31T16:53:17.946Z,102179.00
2022-08-31T16:55:47.322Z,102178.00
2022-08-31T16:58:34.512Z,102184.00
2022-08-31T17:01:12.645Z,102187.00
2022-08-31T17:04:04.717Z,102182.00
2022-08-31T17:06:36.404Z,102178.00
2022-08-31T17:09:16.390Z,102177.00
2022-08-31T17:11:50.375Z,102158.00
2022-08-31T17:14:38.385Z,102160.00
2022-08-31T17:17:09.184Z,102160.00
2022-08-31T17:19:44.479Z,102152.00
2022-08-31T17:22:18.161Z,102153.00
2022-08-31T17:24:51.135Z,102147.00
2022-08-31T17:27:20.286Z,102146.00
2022-08-31T17:29:51.184Z,102149.00
2022-08-31T17:32:23.691Z,102140.00
2022-08-31T17:34:51.751Z,102152.00
2022-08-31T17:37:28.354Z,102143.00
2022-08-31T17:40:07.803Z,102134.00
2022-08-31T17:42:35.695Z,102137.00
2022-08-31T17:45:05.917Z,102134.00
2022-08-31T17:47:33.489Z,102130.00
2022-08-31T17:50:00.588Z,102120.00
2022-08-31T17:55:19.276Z,102122.00
2022-08-31T17:57:46.468Z,102119.00
2022-08-31T18:00:16.749Z,102126.00
2022-08-31T18:03:11.055Z,102116.00
2022-08-31T18:06:05.769Z,102119.00
2022-08-31T18:08:40.413Z,102115.00
2022-08-31T18:11:09.780Z,102118.00
2022-08-31T18:13:37.359Z,102120.00
2022-08-31T18:16:15.921Z,102117.00
2022-08-31T18:22:52.716Z,102115.00
2022-08-31T18:25:22.557Z,102103.00
2022-08-31T18:27:49.573Z,102096.00
2022-08-31T18:30:16.764Z,102107.00
2022-08-31T18:32:47.458Z,102122.00
2022-08-31T18:35:16.427Z,102107.00
2022-08-31T18:37:43.336Z,102115.00
2022-08-31T18:40:29.308Z,102115.00
2022-08-31T18:43:15.542Z,102113.00
2022-08-31T18:45:54.969Z,102117.00
2022-08-31T18:48:35.385Z,102116.00
2022-08-31T18:51:05.314Z,102116.00
2022-08-31T18:53:34.492Z,102120.00
2022-08-31T18:56:14.187Z,102129.00
2022-08-31T18:58:42.279Z,102120.00
2022-08-31T19:01:12.491Z,102115.00
2022-08-31T19:03:45.046Z,102111.00
2022-08-31T19:06:27.167Z,102128.00
2022-08-31T19:08:58.107Z,102117.00
2022-08-31T19:11:36.052Z,102114.00
2022-08-31T19:14:09.713Z,102126.00
2022-08-31T19:16:36.852Z,102115.00
2022-08-31T19:19:14.962Z,102126.00
2022-08-31T19:21:43.514Z,102129.00
2022-08-31T19:24:15.804Z,102121.00
2022-08-31T19:26:58.285Z,102118.00
2022-08-31T19:29:28.961Z,102122.00
2022-08-31T19:31:58.384Z,102115.00
2022-08-31T19:34:54.910Z,102126.00
2022-08-31T19:37:22.931Z,102118.00
2022-08-31T19:39:50.109Z,102126.00
2022-08-31T19:42:17.469Z,102125.00
2022-08-31T19:47:38.724Z,102106.00
2022-08-31T19:50:13.544Z,102114.00
2022-08-31T19:52:41.313Z,102114.00
2022-08-31T19:55:09.367Z,102117.00
2022-08-31T19:57:36.837Z,102119.00
2022-08-31T20:00:05.971Z,102108.00
2022-08-31T20:02:33.390Z,102109.00
2022-08-31T20:05:00.293Z,102117.00
2022-08-31T20:07:38.460Z,102106.00
2022-08-31T20:10:07.425Z,102112.00
2022-08-31T20:12:35.408Z,102116.00
2022-08-31T20:15:03.507Z,102110.00
2022-08-31T20:17:30.361Z,102106.00
2022-08-31T20:19:59.943Z,102110.00
2022-08-31T20:22:28.106Z,102125.00
2022-08-31T20:24:58.326Z,102117.00
2022-08-31T20:27:27.240Z,102116.00
2022-08-31T20:29:54.619Z,102117.00
2022-08-31T20:32:29.201Z,102118.00
2022-08-31T20:34:57.014Z,102132.00
2022-08-31T20:37:30.285Z,102119.00
2022-08-31T20:39:57.206Z,102129.00
2022-08-31T20:42:25.658Z,102125.00
2022-08-31T20:44:55.246Z,102134.00
2022-08-31T20:47:40.676Z,102130.00
2022-08-31T20:50:14.158Z,102117.00
2022-08-31T20:52:41.279Z,102116.00
2022-08-31T20:55:08.903Z,102110.00
2022-08-31T20:57:42.033Z,102117.00
2022-08-31T21:00:10.575Z,102113.00
2022-08-31T21:02:39.768Z,102117.00
2022-08-31T21:05:36.451Z,102115.00
2022-08-31T21:07:57.315Z,102127.00
2022-08-31T21:10:36.339Z,102117.00
2022-08-31T21:13:05.530Z,102130.00
2022-08-31T21:15:32.751Z,102119.00
2022-08-31T21:17:59.833Z,102118.00
2022-08-31T21:20:26.795Z,102113.00
2022-08-31T21:22:53.950Z,102106.00
2022-08-31T21:25:20.988Z,102118.00
2022-08-31T21:27:49.936Z,102116.00
2022-08-31T21:30:17.299Z,102129.00
2022-08-31T21:32:44.564Z,102117.00
2022-08-31T21:35:12.556Z,102128.00
2022-08-31T21:37:40.326Z,102130.00
2022-08-31T21:40:07.739Z,102135.00
2022-08-31T21:42:34.984Z,102136.00
2022-08-31T21:45:06.511Z,102125.00
2022-08-31T21:47:34.434Z,102122.00
2022-08-31T21:50:01.233Z,102130.00
2022-08-31T21:52:28.189Z,102129.00
2022-08-31T21:54:55.118Z,102126.00
2022-08-31T21:57:22.350Z,102119.00
2022-08-31T21:59:50.263Z,102122.00
2022-08-31T22:02:17.160Z,102114.00
2022-08-31T22:04:44.624Z,102121.00
2022-08-31T22:07:13.493Z,102112.00
2022-08-31T22:09:40.545Z,102129.00
2022-08-31T22:12:08.631Z,102118.00
2022-08-31T22:14:38.435Z,102117.00
2022-08-31T22:17:07.065Z,102120.00
2022-08-31T22:19:42.401Z,102116.00
2022-08-31T22:22:12.477Z,102121.00
2022-08-31T22:24:40.874Z,102120.00
2022-08-31T22:27:09.886Z,102129.00
2022-08-31T22:29:37.731Z,102120.00
2022-08-31T22:32:11.931Z,102132.00
2022-08-31T22:34:41.973Z,102115.00
2022-08-31T22:37:09.196Z,102117.00
2022-08-31T22:39:36.435Z,102126.00
2022-08-31T22:42:04.036Z,102137.00
2022-08-31T22:44:34.211Z,102132.00
2022-08-31T22:47:01.600Z,102130.00
2022-08-31T22:49:28.531Z,102122.00
2022-08-31T22:51:55.649Z,102122.00
2022-08-31T22:54:23.606Z,102119.00
2022-08-31T22:56:50.607Z,102114.00
2022-08-31T22:59:24.712Z,102120.00
2022-08-31T23:01:55.071Z,102114.00
2022-08-31T23:04:24.489Z,102129.00
2022-08-31T23:06:52.052Z,102116.00
2022-08-31T23:09:21.242Z,102114.00
2022-08-31T23:11:51.439Z,102126.00
2022-08-31T23:14:21.049Z,102119.00
2022-08-31T23:16:57.147Z,102126.00
2022-08-31T23:19:28.485Z,102128.00
2022-08-31T23:21:57.581Z,102120.00
2022-08-31T23:24:24.581Z,102127.00
2022-08-31T23:26:53.002Z,102129.00
2022-08-31T23:29:21.685Z,102125.00
2022-08-31T23:31:48.796Z,102127.00
2022-08-31T23:34:16.770Z,102118.00
2022-08-31T23:36:49.251Z,102113.00
2022-08-31T23:39:18.275Z,102121.00
2022-08-31T23:41:46.246Z,102126.00
2022-08-31T23:44:13.356Z,102107.00
2022-08-31T23:46:42.895Z,102110.00
2022-08-31T23:49:11.552Z,102117.00
2022-08-31T23:51:38.707Z,102107.00
2022-08-31T23:54:07.864Z,102114.00
2022-08-31T23:56:40.840Z,102106.00
2022-08-31T23:59:19.841Z,102108.00
